Las Vegas, Nevada
Current Conditions -  °F | °C
As of 3:56 PM on Friday 21 Nov 2014 (Local Time) from KLAS Reporting Station
Clear Clear  
Wind Chill: 67°   Ceiling: Unl
Heat Index: 67°   Visibility: 10mi
Dew Point: 28°   Wind: 6mph
Humidity: 23%   Direction: 200°SSW
Pressure: 29.91"   Gusts: NA
Location:  36.17°N, 115.13°W
Report Text: KLAS 212356Z 20005KT 10SM CLR 19/M02 A2991 RMK AO2 SLP118 T01941022 10200 20161 55000
Loading
Personal Weather Stations






























Interactive Weather Map New forecast layout! Learn more

10-Day Weather Forecast

Advertisements
Track Severe Weather on mobile